Time;durP1;ratioP1;P1;durP2;ratioP2;P2;SDS_P1;SDS_P2;PMS_P1;PMS_P2;Temp;Humidity;BMP_temperature;BMP_pressure;BME280_temperature;BME280_humidity;BME280_pressure;Samples;Min_cycle;Max_cycle;Signal;HPM_P1;HPM_P2
2021/06/08 00:00:20;;;;;;;13.93;10.43;;;14.60;99.90;;;13.99;93.46;98081.78;5071792;28;20048;-68
2021/06/08 00:02:48;;;;;;;16.25;9.82;;;14.60;99.90;;;14.06;93.10;98085.75;5052890;28;20449;-69
2021/06/08 00:05:16;;;;;;;14.95;9.85;;;14.70;99.90;;;14.08;93.05;98080.47;5069899;28;20044;-69
2021/06/08 00:07:43;;;;;;;15.07;10.02;;;14.70;99.90;;;14.15;92.58;98087.09;5070678;28;20455;-70
2021/06/08 00:10:12;;;;;;;12.63;9.02;;;14.80;99.90;;;14.20;92.23;98085.09;5072192;28;20411;-69
2021/06/08 00:12:39;;;;;;;14.70;9.18;;;14.90;99.90;;;14.18;92.23;98082.53;5068522;28;20051;-69
2021/06/08 00:15:08;;;;;;;13.07;9.02;;;14.90;99.90;;;14.21;92.02;98089.41;5067643;28;20045;-68
2021/06/08 00:17:36;;;;;;;15.35;9.23;;;14.90;99.90;;;14.18;92.27;98086.94;5067401;28;20152;-69
2021/06/08 00:20:05;;;;;;;14.05;8.70;;;14.90;99.90;;;14.13;92.37;98092.38;5066555;28;20056;-69
2021/06/08 00:22:33;;;;;;;17.52;8.27;;;14.90;99.90;;;14.14;92.19;98096.69;5065377;28;20045;-69
2021/06/08 00:25:01;;;;;;;14.75;8.82;;;14.90;99.90;;;14.11;92.64;98089.00;5069945;28;20053;-68
2021/06/08 00:27:28;;;;;;;14.27;9.02;;;14.90;99.90;;;14.13;92.54;98091.53;5068139;28;20178;-70
2021/06/08 00:29:56;;;;;;;16.20;8.65;;;14.80;99.90;;;14.12;92.56;98093.31;5069854;28;20101;-69
2021/06/08 00:32:23;;;;;;;12.75;8.95;;;14.80;99.90;;;14.06;92.86;98088.38;5068361;28;20401;-69
2021/06/08 00:34:50;;;;;;;14.57;8.30;;;14.80;99.90;;;14.04;92.99;98085.00;5068518;28;20496;-70
2021/06/08 00:37:17;;;;;;;12.57;9.25;;;14.80;99.90;;;13.91;93.56;98087.38;5070533;28;20455;-69
2021/06/08 00:39:44;;;;;;;15.40;11.13;;;14.70;99.90;;;13.81;94.46;98080.88;5068784;28;20036;-69
2021/06/08 00:42:11;;;;;;;16.10;10.35;;;14.60;99.90;;;13.86;93.90;98083.28;5068861;28;20480;-69
2021/06/08 00:44:39;;;;;;;15.77;10.48;;;14.60;99.90;;;13.82;94.21;98077.34;5069636;28;20102;-67
2021/06/08 00:47:06;;;;;;;16.65;10.27;;;14.60;99.90;;;13.75;94.21;98083.78;5068961;28;20585;-68
2021/06/08 00:49:33;;;;;;;17.85;9.85;;;14.50;99.90;;;13.70;94.31;98077.94;5069978;28;20037;-67
2021/06/08 00:52:01;;;;;;;17.77;10.55;;;14.50;99.90;;;13.55;95.04;98072.53;5070181;28;20045;-68
2021/06/08 00:54:27;;;;;;;20.10;11.23;;;14.40;99.90;;;13.56;95.44;98076.81;5067918;28;20044;-68
2021/06/08 00:56:57;;;;;;;18.98;10.32;;;14.30;99.90;;;13.50;95.69;98069.28;5068781;28;20041;-69
2021/06/08 00:59:24;;;;;;;18.05;12.02;;;14.30;99.90;;;13.53;95.60;98065.69;5069689;28;20047;-68
2021/06/08 01:01:51;;;;;;;16.10;10.82;;;14.30;99.90;;;13.58;95.67;98066.31;5064828;28;20110;-67
2021/06/08 01:04:19;;;;;;;16.67;9.88;;;14.30;99.90;;;13.54;95.37;98072.59;5068968;28;20044;-68
2021/06/08 01:06:49;;;;;;;15.65;11.18;;;14.30;99.90;;;13.57;95.68;98069.84;5068346;28;20044;-67
2021/06/08 01:09:16;;;;;;;17.42;11.85;;;14.20;99.90;;;13.54;95.61;98069.97;5068473;28;20037;-68
2021/06/08 01:11:43;;;;;;;18.45;12.40;;;14.20;99.90;;;13.50;95.47;98068.44;5067759;28;20472;-68
2021/06/08 01:14:10;;;;;;;17.55;12.45;;;14.20;99.90;;;13.56;95.30;98070.75;5070578;28;20132;-67
2021/06/08 01:16:39;;;;;;;18.58;11.98;;;14.20;99.90;;;13.53;95.41;98056.09;5069477;28;20186;-68
2021/06/08 01:19:07;;;;;;;17.30;12.10;;;14.20;99.90;;;13.47;95.56;98053.78;5068362;28;20427;-67
2021/06/08 01:21:35;;;;;;;20.05;12.07;;;14.20;99.90;;;13.46;95.74;98049.50;5067505;28;20464;-67
2021/06/08 01:24:03;;;;;;;18.33;12.40;;;14.20;99.90;;;13.39;96.25;98053.31;5059601;28;20097;-67
2021/06/08 01:26:31;;;;;;;21.20;13.77;;;14.10;99.90;;;13.40;96.66;98041.94;5066433;28;20101;-67
2021/06/08 01:29:02;;;;;;;26.63;13.98;;;14.10;99.90;;;13.49;96.20;98045.88;5069062;28;20059;-68
2021/06/08 01:31:34;;;;;;;20.52;13.27;;;14.10;99.90;;;13.59;95.73;98049.75;5068110;28;20045;-68
2021/06/08 01:34:02;;;;;;;17.38;12.93;;;14.20;99.90;;;13.66;95.29;98055.50;5069151;28;20102;-68
2021/06/08 01:36:40;;;;;;;17.85;12.15;;;14.20;99.90;;;13.62;94.56;98057.44;5066432;28;20048;-69
2021/06/08 01:39:07;;;;;;;15.70;11.90;;;14.30;99.90;;;13.53;94.41;98058.72;5068138;28;20052;-68
2021/06/08 01:41:37;;;;;;;18.77;12.00;;;14.20;99.90;;;13.45;94.44;98067.81;5066895;28;20044;-68
2021/06/08 01:44:05;;;;;;;25.10;12.20;;;14.10;99.90;;;13.44;95.10;98066.97;5067007;28;20033;-68
2021/06/08 01:46:32;;;;;;;16.50;12.48;;;14.10;99.90;;;13.41;95.27;98061.03;5067472;28;20036;-68
2021/06/08 01:49:00;;;;;;;20.95;14.25;;;14.00;99.90;;;13.41;95.35;98066.25;5068740;28;20037;-68
2021/06/08 01:52:04;;;;;;;24.90;12.10;;;14.00;99.90;;;13.34;94.92;98076.13;5066876;28;20049;-67
2021/06/08 01:55:05;;;;;;;21.30;12.15;;;14.00;99.90;;;13.30;94.69;98072.81;5067888;28;20044;-67
2021/06/08 01:57:51;;;;;;;18.13;12.45;;;14.00;99.90;;;13.25;95.23;98074.75;5045841;28;20415;-68
2021/06/08 02:00:29;;;;;;;19.45;12.50;;;13.90;99.90;;;13.23;95.79;98076.59;5065723;28;20064;-67
2021/06/08 02:03:17;;;;;;;17.13;13.40;;;13.90;99.90;;;13.21;95.69;98073.19;5068257;28;20094;-68
2021/06/08 02:06:27;;;;;;;19.45;13.55;;;13.90;99.90;;;13.21;96.01;98081.03;5082400;28;20036;-67
2021/06/08 02:09:23;;;;;;;17.60;13.45;;;13.80;99.90;;;13.30;96.44;98079.81;5055309;28;20048;-68
2021/06/08 02:12:20;;;;;;;19.25;13.43;;;13.90;99.90;;;13.48;96.29;98086.78;5066318;28;20048;-69
2021/06/08 02:15:09;;;;;;;19.45;12.70;;;14.00;99.90;;;13.48;94.77;98088.50;5068613;28;20048;-68
2021/06/08 02:17:50;;;;;;;17.40;12.27;;;14.20;99.90;;;13.41;94.73;98077.56;5059457;28;20137;-68
2021/06/08 02:20:26;;;;;;;19.85;10.77;;;14.20;99.90;;;13.39;93.93;98085.44;5065563;28;20041;-67
2021/06/08 02:23:00;;;;;;;17.15;11.80;;;14.20;99.90;;;13.33;94.86;98090.91;5067517;28;20099;-67
2021/06/08 02:25:30;;;;;;;18.80;12.05;;;14.20;99.90;;;13.42;95.42;98094.03;5064176;28;20048;-67
2021/06/08 02:28:00;;;;;;;20.63;14.05;;;14.20;99.90;;;13.39;95.79;98087.19;5064351;28;20037;-68
2021/06/08 02:30:30;;;;;;;19.85;13.85;;;14.20;99.90;;;13.39;95.47;98090.66;5051212;28;20048;-67
2021/06/08 02:32:59;;;;;;;21.48;12.15;;;14.20;99.90;;;13.42;95.01;98094.88;5067631;28;20126;-67
2021/06/08 02:35:27;;;;;;;15.00;10.68;;;14.30;99.90;;;13.45;94.77;98094.72;5066266;28;20101;-68
2021/06/08 02:37:56;;;;;;;19.90;12.45;;;14.30;99.90;;;13.47;94.43;98095.50;5067404;28;20044;-68
2021/06/08 02:40:24;;;;;;;20.40;11.55;;;14.30;99.90;;;13.48;94.12;98093.72;5066715;28;20099;-67
2021/06/08 02:42:51;;;;;;;15.30;11.57;;;14.20;99.90;;;13.51;94.35;98099.66;5067296;28;20048;-67
2021/06/08 02:45:19;;;;;;;14.50;10.82;;;14.20;99.90;;;13.48;94.67;98096.34;5050158;28;20036;-68
2021/06/08 02:47:48;;;;;;;18.70;12.07;;;14.30;99.90;;;13.51;94.84;98091.00;5049908;28;20354;-67
2021/06/08 02:50:17;;;;;;;22.20;12.07;;;14.30;99.90;;;13.55;94.94;98092.56;5066766;28;20102;-68
2021/06/08 02:52:46;;;;;;;18.17;10.98;;;14.30;99.90;;;13.63;94.64;98084.38;5068660;28;20045;-67
2021/06/08 02:55:14;;;;;;;15.95;11.63;;;14.40;99.90;;;13.65;94.71;98082.53;5065032;28;20078;-68
2021/06/08 02:57:41;;;;;;;18.63;12.35;;;14.40;99.90;;;13.64;94.98;98091.25;5053437;28;20369;-68
2021/06/08 03:00:09;;;;;;;21.65;12.57;;;14.40;99.90;;;13.62;95.44;98093.97;5069924;28;20037;-67
2021/06/08 03:02:40;;;;;;;19.27;13.32;;;14.40;99.90;;;13.63;95.64;98095.63;5066483;28;20063;-68
2021/06/08 03:05:15;;;;;;;18.58;12.70;;;14.40;99.90;;;13.69;95.90;98087.53;5071193;28;20040;-68
2021/06/08 03:07:46;;;;;;;20.88;14.50;;;14.40;99.90;;;13.73;95.85;98083.88;5050319;28;20052;-68
2021/06/08 03:10:20;;;;;;;19.92;14.73;;;14.50;99.90;;;13.83;95.37;98078.22;5068442;28;20039;-68
2021/06/08 03:12:57;;;;;;;21.92;16.08;;;14.60;99.90;;;13.90;94.98;98088.28;5069144;28;20051;-67
2021/06/08 03:15:31;;;;;;;25.05;16.50;;;14.60;99.90;;;13.93;94.72;98093.34;5066224;28;20062;-67
2021/06/08 03:17:59;;;;;;;22.33;15.40;;;14.70;99.90;;;13.96;94.97;98094.97;5070297;28;20515;-68
2021/06/08 03:20:55;;;;;;;22.30;14.40;;;14.70;99.90;;;14.01;94.42;98090.38;5055168;28;20040;-68
2021/06/08 03:23:27;;;;;;;21.58;15.50;;;14.70;99.90;;;14.04;94.24;98078.94;5067938;28;20048;-68
2021/06/08 03:25:56;;;;;;;23.23;16.43;;;14.70;99.90;;;14.05;94.03;98083.22;5070167;28;20097;-68
2021/06/08 03:28:26;;;;;;;21.05;15.65;;;14.80;99.90;;;14.03;94.04;98085.94;5069293;28;20459;-68
2021/06/08 03:30:54;;;;;;;25.05;16.55;;;14.80;99.90;;;14.05;93.86;98089.31;5071154;28;20045;-68
2021/06/08 03:33:25;;;;;;;26.00;16.77;;;14.70;99.90;;;14.02;93.83;98086.84;5069358;28;20135;-68
2021/06/08 03:35:54;;;;;;;20.58;15.20;;;14.70;99.90;;;13.97;94.00;98096.66;5065645;28;20099;-68
2021/06/08 03:38:24;;;;;;;23.00;16.10;;;14.70;99.90;;;13.98;93.81;98085.28;5071448;28;20074;-68
2021/06/08 03:40:53;;;;;;;25.88;17.92;;;14.70;99.90;;;13.94;94.08;98088.97;5068906;28;20036;-68
2021/06/08 03:43:22;;;;;;;27.27;17.73;;;14.70;99.90;;;13.90;93.87;98090.88;5070569;28;20033;-68
2021/06/08 03:45:50;;;;;;;26.92;17.90;;;14.60;99.90;;;13.92;94.05;98085.59;5065406;28;20045;-68
2021/06/08 03:48:19;;;;;;;23.05;17.05;;;14.60;99.90;;;13.89;93.77;98094.41;5052094;28;20208;-68
2021/06/08 03:50:50;;;;;;;25.67;16.35;;;14.60;99.90;;;13.87;94.00;98091.03;5069219;28;20523;-68
2021/06/08 03:53:17;;;;;;;26.30;18.15;;;14.60;99.90;;;13.88;94.17;98089.25;5069849;28;20201;-68
2021/06/08 03:55:48;;;;;;;25.25;17.77;;;14.60;99.90;;;13.84;94.51;98091.16;5051265;28;20049;-67
2021/06/08 03:58:18;;;;;;;30.17;17.15;;;14.60;99.90;;;13.77;94.68;98082.78;5069571;28;20094;-68
2021/06/08 04:00:54;;;;;;;28.05;17.38;;;14.50;99.90;;;13.81;94.48;98093.94;5069878;28;20102;-67
2021/06/08 04:03:24;;;;;;;28.10;18.08;;;14.60;99.90;;;13.84;94.64;98088.56;5071604;28;20131;-67
2021/06/08 04:05:55;;;;;;;29.13;17.88;;;14.60;99.90;;;13.90;94.58;98095.25;5068283;28;20037;-68
2021/06/08 04:08:25;;;;;;;23.42;17.73;;;14.70;99.90;;;13.96;94.19;98098.44;5070191;28;20043;-69
2021/06/08 04:10:53;;;;;;;28.48;16.50;;;14.70;99.90;;;14.06;93.90;98104.03;5068766;28;20523;-67
2021/06/08 04:13:20;;;;;;;24.30;16.40;;;14.80;99.90;;;14.13;93.37;98102.81;5070566;28;20040;-68
2021/06/08 04:15:50;;;;;;;24.17;15.48;;;14.90;99.90;;;14.26;92.97;98107.47;5068833;28;20044;-67
2021/06/08 04:18:20;;;;;;;19.88;13.07;;;15.00;99.90;;;14.24;92.89;98107.53;5070362;28;20132;-68
2021/06/08 04:20:48;;;;;;;27.20;17.02;;;15.10;99.90;;;14.27;92.60;98102.16;5068400;28;20107;-68
2021/06/08 04:23:24;;;;;;;23.08;16.83;;;15.10;99.90;;;14.25;92.89;98105.75;5069714;28;20044;-68
2021/06/08 04:25:53;;;;;;;23.75;17.67;;;15.10;99.90;;;14.20;93.56;98100.75;5063860;28;20041;-67
2021/06/08 04:28:25;;;;;;;24.98;17.60;;;15.10;99.90;;;14.19;94.02;98106.91;5069768;28;20404;-68
2021/06/08 04:30:55;;;;;;;28.02;18.45;;;15.00;99.90;;;14.22;93.88;98109.38;5052218;28;20312;-68
2021/06/08 04:33:29;;;;;;;26.75;18.65;;;15.10;99.90;;;14.19;94.21;98107.75;5068786;28;20504;-68
2021/06/08 04:35:57;;;;;;;26.30;17.33;;;15.00;99.90;;;14.20;94.17;98104.22;5068460;28;20127;-67
2021/06/08 04:38:24;;;;;;;28.38;19.20;;;15.10;99.90;;;14.20;94.28;98109.44;5061524;28;20136;-68
2021/06/08 04:40:52;;;;;;;27.35;19.00;;;15.10;99.90;;;14.21;94.40;98108.53;5079811;28;20051;-67
2021/06/08 04:43:25;;;;;;;26.38;18.30;;;15.10;99.90;;;14.24;94.50;98110.13;5078397;28;20059;-68
2021/06/08 04:45:52;;;;;;;23.83;19.08;;;15.10;99.90;;;14.32;94.16;98105.41;5078523;28;20053;-67
2021/06/08 04:48:23;;;;;;;22.65;16.63;;;15.10;99.90;;;14.40;94.00;98111.06;5079009;28;20047;-68
2021/06/08 04:50:52;;;;;;;18.40;14.75;;;15.30;99.90;;;14.50;93.72;98115.84;5078016;28;20051;-68
2021/06/08 04:53:21;;;;;;;23.55;18.10;;;15.40;99.90;;;14.59;93.30;98111.00;5061789;28;20045;-67
2021/06/08 04:55:49;;;;;;;20.95;16.00;;;15.50;99.90;;;14.64;92.58;98110.78;5070640;28;20048;-67
2021/06/08 04:58:17;;;;;;;23.92;14.23;;;15.60;99.90;;;14.66;92.75;98115.94;5084150;28;20044;-67
2021/06/08 05:01:01;;;;;;;20.95;15.30;;;15.60;99.90;;;14.70;92.49;98112.25;5050946;28;20159;-67
2021/06/08 05:03:37;;;;;;;25.67;17.45;;;15.70;99.90;;;14.76;91.95;98117.19;5068412;28;20072;-68
2021/06/08 05:06:10;;;;;;;24.05;18.23;;;15.70;99.90;;;14.75;91.80;98112.88;5068966;28;20068;-68
2021/06/08 05:08:53;;;;;;;22.95;16.95;;;15.70;99.90;;;14.75;91.95;98110.25;5068451;28;20070;-68
2021/06/08 05:11:28;;;;;;;23.92;16.95;;;15.70;99.90;;;14.78;91.41;98115.31;5066029;28;20119;-67
2021/06/08 05:13:56;;;;;;;24.02;17.92;;;15.70;99.90;;;14.73;92.29;98112.94;5056822;28;20040;-68
2021/06/08 05:16:28;;;;;;;24.83;17.70;;;15.70;99.90;;;14.75;92.65;98124.16;5066556;28;20051;-67
2021/06/08 05:18:56;;;;;;;25.95;18.33;;;15.70;99.90;;;14.69;93.09;98118.38;5069484;28;20037;-67
2021/06/08 05:21:24;;;;;;;31.70;20.30;;;15.70;99.90;;;14.64;93.46;98119.50;5067279;28;20040;-68
2021/06/08 05:23:52;;;;;;;28.90;20.58;;;15.60;99.90;;;14.60;94.40;98117.94;5069934;28;20029;-68
2021/06/08 05:26:21;;;;;;;27.65;18.85;;;15.60;99.90;;;14.63;94.64;98120.41;5067697;28;20036;-68
2021/06/08 05:28:49;;;;;;;25.00;19.25;;;15.60;99.90;;;14.80;94.33;98116.94;5067284;28;20110;-67
2021/06/08 05:31:20;;;;;;;19.85;14.98;;;15.70;99.90;;;14.91;94.39;98115.53;5068986;28;20105;-68
2021/06/08 05:33:48;;;;;;;22.73;17.20;;;15.90;99.90;;;15.14;93.13;98125.63;5067341;28;20044;-68
2021/06/08 05:36:15;;;;;;;21.75;15.88;;;16.00;99.90;;;15.19;92.52;98120.16;5066529;28;20114;-67
2021/06/08 05:38:46;;;;;;;20.33;14.82;;;16.10;99.90;;;15.44;92.61;98120.56;5070591;28;20113;-68
2021/06/08 05:41:15;;;;;;;22.23;16.77;;;16.40;99.90;;;15.50;91.96;98122.00;5068405;28;20665;-68
2021/06/08 05:43:43;;;;;;;23.40;16.42;;;16.70;99.90;;;15.69;91.39;98124.44;5069849;28;20037;-68
2021/06/08 05:46:11;;;;;;;29.23;18.90;;;16.90;99.90;;;15.69;90.12;98119.22;5068605;28;20493;-68
2021/06/08 05:48:40;;;;;;;21.13;16.55;;;16.90;99.90;;;15.69;90.19;98132.31;5066981;28;20090;-67
2021/06/08 05:51:09;;;;;;;23.05;14.88;;;17.00;99.90;;;15.77;89.97;98127.53;5049149;28;20053;-68
2021/06/08 05:53:43;;;;;;;20.92;15.63;;;17.10;99.90;;;15.82;89.89;98124.66;5048783;28;20114;-67
2021/06/08 05:56:11;;;;;;;18.60;14.75;;;17.20;99.90;;;15.95;89.03;98128.31;5067195;28;20040;-68
2021/06/08 05:58:39;;;;;;;23.85;16.35;;;17.20;99.90;;;15.83;88.47;98121.97;5067988;28;20067;-69
2021/06/08 06:01:11;;;;;;;19.80;15.93;;;17.10;99.90;;;15.71;89.32;98125.25;5066759;28;20523;-68
2021/06/08 06:03:39;;;;;;;19.77;15.85;;;17.00;99.90;;;15.76;89.34;98127.63;5068852;28;20036;-68
2021/06/08 06:06:08;;;;;;;20.02;15.85;;;17.00;99.90;;;15.71;89.55;98124.41;5065971;28;20480;-68
2021/06/08 06:08:35;;;;;;;19.73;14.85;;;17.00;99.90;;;15.72;89.74;98123.50;5067695;28;20227;-68
2021/06/08 06:11:06;;;;;;;23.70;16.92;;;17.00;99.90;;;15.67;89.55;98132.41;5069387;28;20044;-68
2021/06/08 06:14:02;;;;;;;24.23;17.90;;;16.90;99.90;;;15.64;90.25;98132.56;5068629;28;20055;-70
2021/06/08 06:16:34;;;;;;;24.98;18.55;;;16.80;99.90;;;15.51;89.91;98133.31;5065035;28;20461;-67
2021/06/08 06:19:05;;;;;;;27.48;20.73;;;16.60;99.90;;;15.40;90.73;98134.75;5069415;28;20040;-68
2021/06/08 06:21:32;;;;;;;24.83;18.65;;;16.50;99.90;;;15.49;90.84;98136.03;5048602;28;20067;-68
2021/06/08 06:24:00;;;;;;;26.20;18.10;;;16.60;99.90;;;15.64;90.48;98134.34;5049781;28;20045;-68
2021/06/08 06:26:28;;;;;;;25.80;19.95;;;16.60;99.90;;;15.63;90.40;98136.13;5066140;28;20102;-68
2021/06/08 06:28:56;;;;;;;20.98;16.50;;;16.70;99.90;;;15.62;90.27;98134.44;5067378;28;20040;-68
2021/06/08 06:31:23;;;;;;;17.35;14.57;;;16.90;99.90;;;15.82;89.53;98135.97;5066659;28;20044;-68
2021/06/08 06:33:55;;;;;;;27.13;16.95;;;17.10;99.90;;;15.91;88.25;98136.41;5070012;28;20520;-67
2021/06/08 06:36:26;;;;;;;20.07;14.93;;;17.10;99.90;;;15.85;88.58;98138.44;5066438;28;20094;-67
2021/06/08 06:38:59;;;;;;;19.27;14.80;;;17.20;99.90;;;16.04;88.40;98137.44;5069846;28;20388;-67
2021/06/08 06:41:27;;;;;;;22.40;16.58;;;17.40;99.90;;;16.33;87.61;98140.16;5066479;28;20135;-67
2021/06/08 06:43:55;;;;;;;22.42;17.13;;;17.60;99.90;;;16.23;86.88;98148.53;5068419;28;20045;-70
2021/06/08 06:46:23;;;;;;;20.50;15.65;;;17.60;99.90;;;16.18;86.68;98145.34;5066075;28;20105;-70
2021/06/08 06:48:53;;;;;;;22.23;17.17;;;17.60;99.90;;;16.11;86.72;98149.25;5068251;28;20530;-71
2021/06/08 06:51:21;;;;;;;27.60;19.27;;;17.40;99.90;;;16.00;86.59;98151.63;5050814;28;20045;-66
2021/06/08 06:53:49;;;;;;;23.55;18.02;;;17.20;99.90;;;16.20;86.47;98150.50;5064615;28;20265;-67
2021/06/08 06:56:18;;;;;;;24.13;17.70;;;17.40;99.90;;;16.21;86.96;98146.94;5063792;28;20047;-67
2021/06/08 06:58:45;;;;;;;23.02;18.08;;;17.40;99.90;;;16.20;86.13;98146.09;5064226;28;20067;-68
2021/06/08 07:01:13;;;;;;;18.98;15.23;;;17.50;99.90;;;16.50;86.26;98150.53;5065283;28;20048;-67
2021/06/08 07:03:41;;;;;;;26.85;17.77;;;17.70;99.90;;;16.56;85.34;98150.19;5064752;28;20041;-69
2021/06/08 07:06:11;;;;;;;23.98;17.30;;;17.70;99.90;;;16.77;85.55;98149.88;5065583;28;21539;-69
2021/06/08 07:08:39;;;;;;;21.65;16.88;;;18.00;99.90;;;16.81;85.35;98143.53;5050689;28;20435;-68
2021/06/08 07:11:06;;;;;;;17.25;14.55;;;18.10;99.90;;;16.94;85.10;98149.72;5067659;28;20053;-68
2021/06/08 07:13:34;;;;;;;15.73;13.30;;;18.30;99.90;;;17.31;84.09;98147.50;5068028;28;20133;-68
2021/06/08 07:16:01;;;;;;;18.63;15.23;;;18.60;99.90;;;17.13;83.49;98152.13;5066008;28;20065;-69
2021/06/08 07:18:29;;;;;;;19.17;15.75;;;18.40;99.90;;;17.10;83.37;98154.91;5067071;28;20189;-69
2021/06/08 07:20:56;;;;;;;22.58;18.13;;;18.50;99.90;;;16.93;84.18;98148.06;5067687;28;20414;-69
2021/06/08 07:23:24;;;;;;;23.50;17.08;;;18.30;99.90;;;16.91;83.21;98145.53;5068455;28;20040;-69
2021/06/08 07:25:51;;;;;;;17.35;13.90;;;18.30;99.90;;;17.10;84.11;98150.50;5049633;28;20444;-68
2021/06/08 07:28:20;;;;;;;15.98;13.10;;;18.50;99.90;;;17.42;83.10;98147.69;5065658;28;20075;-69
2021/06/08 07:30:49;;;;;;;16.55;13.23;;;18.70;99.90;;;17.49;82.54;98148.19;5047962;28;20094;-69
2021/06/08 07:33:40;;;;;;;17.27;13.85;;;19.00;99.90;;;17.83;80.91;98146.13;5064869;28;20195;-68
2021/06/08 07:36:27;;;;;;;15.70;13.40;;;19.20;99.90;;;17.77;80.99;98150.78;5079633;28;20051;-69
2021/06/08 07:39:02;;;;;;;16.33;12.82;;;19.30;99.90;;;17.73;80.43;98148.44;5065297;28;20059;-68
2021/06/08 07:41:44;;;;;;;15.77;12.73;;;19.30;99.90;;;17.58;80.99;98158.09;5067704;28;20040;-69
2021/06/08 07:44:37;;;;;;;17.77;15.37;;;19.30;99.90;;;17.62;79.47;98158.78;5069225;28;20110;-69
2021/06/08 07:47:06;;;;;;;18.98;11.75;;;19.20;99.90;;;17.43;81.12;98159.91;5067872;28;20611;-68
2021/06/08 07:49:35;;;;;;;18.80;14.43;;;19.20;99.90;;;17.50;80.32;98161.22;5069050;28;20041;-69
2021/06/08 07:52:04;;;;;;;17.08;12.30;;;18.90;99.90;;;17.63;80.16;98165.69;5069515;28;20044;-68
2021/06/08 07:54:32;;;;;;;14.88;12.30;;;18.90;99.90;;;17.75;79.79;98154.44;5055805;28;20044;-69
2021/06/08 07:57:00;;;;;;;17.00;13.32;;;19.00;99.90;;;17.69;80.72;98160.06;5052070;28;20079;-68
2021/06/08 07:59:27;;;;;;;14.95;12.48;;;19.00;99.90;;;17.98;78.69;98161.75;5067208;28;20045;-69
2021/06/08 08:01:54;;;;;;;16.92;12.57;;;19.20;99.90;;;17.98;78.69;98171.41;5069124;28;20041;-69
2021/06/08 08:04:23;;;;;;;13.38;11.43;;;19.30;99.90;;;18.22;78.93;98165.53;5069485;28;20032;-69
2021/06/08 08:06:52;;;;;;;18.10;13.23;;;19.50;99.90;;;17.86;78.09;98162.53;5070141;28;20060;-69
2021/06/08 08:09:20;;;;;;;17.45;13.25;;;19.50;99.90;;;17.92;77.95;98158.66;5064549;28;20040;-68
2021/06/08 08:11:52;;;;;;;13.73;11.63;;;19.40;99.90;;;18.35;77.66;98158.53;5069539;28;20102;-68
2021/06/08 08:14:24;;;;;;;18.65;12.90;;;19.70;99.90;;;18.06;77.04;98163.88;5069921;28;20400;-68
2021/06/08 08:16:54;;;;;;;15.82;12.07;;;19.60;99.90;;;18.23;76.87;98160.19;5066168;28;20072;-69
2021/06/08 08:19:23;;;;;;;15.63;11.35;;;19.70;99.90;;;18.63;76.03;98165.44;5052783;28;20041;-68
2021/06/08 08:21:50;;;;;;;11.82;10.63;;;20.00;99.90;;;18.88;75.41;98158.59;5052545;28;20475;-68
2021/06/08 08:24:18;;;;;;;13.02;9.82;;;20.30;99.90;;;19.23;74.93;98156.22;5070445;28;20502;-69
2021/06/08 08:26:46;;;;;;;12.68;9.52;;;20.60;99.90;;;19.33;75.03;98159.88;5068658;28;20037;-69
2021/06/08 08:29:13;;;;;;;13.27;11.23;;;20.80;99.90;;;19.23;74.51;98157.06;5070325;28;20040;-69
2021/06/08 08:31:40;;;;;;;13.80;9.98;;;21.00;99.90;;;19.07;74.29;98160.81;5068537;28;20501;-69
2021/06/08 08:34:07;;;;;;;16.35;12.40;;;21.10;99.90;;;19.04;73.32;98163.66;5069734;28;20117;-68
2021/06/08 08:36:37;;;;;;;13.57;10.63;;;20.70;99.90;;;19.24;74.28;98157.88;5064632;28;20515;-68
2021/06/08 08:39:10;;;;;;;14.45;10.63;;;21.00;99.90;;;19.36;73.46;98153.56;5070111;28;20109;-68
2021/06/08 08:41:39;;;;;;;14.23;11.32;;;21.10;99.90;;;19.32;73.15;98149.47;5057149;28;20044;-69
2021/06/08 08:44:09;;;;;;;17.27;11.18;;;21.00;99.90;;;19.65;72.35;98147.09;5067823;28;20055;-69
2021/06/08 08:46:37;;;;;;;16.55;11.50;;;21.10;99.90;;;19.87;71.67;98143.00;5067102;28;20518;-68
2021/06/08 08:49:05;;;;;;;13.55;10.60;;;21.30;99.90;;;19.77;71.62;98140.16;5067530;28;20484;-69
2021/06/08 08:51:33;;;;;;;13.60;11.20;;;21.50;99.90;;;19.41;71.62;98140.94;5068025;28;20110;-69
2021/06/08 08:54:01;;;;;;;15.05;11.85;;;21.60;99.90;;;19.52;71.62;98142.81;5069000;28;20419;-69
2021/06/08 08:56:32;;;;;;;15.80;12.32;;;21.50;99.90;;;19.33;71.54;98145.88;5068839;28;20515;-69
2021/06/08 08:59:07;;;;;;;15.15;11.32;;;21.20;99.90;;;19.18;72.75;98145.13;5067495;28;20040;-69
2021/06/08 09:01:37;;;;;;;13.30;11.25;;;21.40;99.90;;;19.48;71.39;98133.44;5058651;28;20060;-69
2021/06/08 09:04:06;;;;;;;15.82;11.70;;;21.50;99.90;;;19.58;71.32;98139.75;5070301;28;20102;-69
2021/06/08 09:06:34;;;;;;;12.00;10.15;;;21.40;99.90;;;19.68;71.20;98145.19;5067351;28;20047;-70
2021/06/08 09:09:03;;;;;;;14.27;11.55;;;21.50;99.90;;;19.46;72.31;98145.88;5051652;28;20036;-69
2021/06/08 09:11:32;;;;;;;15.50;11.90;;;21.50;99.90;;;19.62;71.48;98142.06;5068060;28;20044;-69
2021/06/08 09:14:00;;;;;;;12.32;9.90;;;21.50;99.90;;;19.92;70.72;98140.03;5069206;28;20051;-69
2021/06/08 09:16:28;;;;;;;13.48;9.82;;;21.80;99.90;;;19.96;70.43;98141.50;5068826;28;20098;-69
2021/06/08 09:18:56;;;;;;;12.25;10.35;;;21.90;99.90;;;20.22;69.41;98142.22;5068424;28;20052;-69
2021/06/08 09:21:26;;;;;;;13.90;11.27;;;22.00;99.90;;;19.91;69.94;98143.59;5069023;28;20102;-68
2021/06/08 09:23:54;;;;;;;13.20;10.93;;;21.80;99.90;;;19.84;70.07;98146.69;5066548;28;20113;-69
2021/06/08 09:26:21;;;;;;;16.83;11.93;;;21.70;99.90;;;19.55;71.23;98151.34;5064290;28;20070;-69
2021/06/08 09:28:48;;;;;;;13.45;11.48;;;21.30;99.90;;;19.70;71.30;98154.72;5068970;28;20463;-69
2021/06/08 09:31:21;;;;;;;12.75;9.45;;;21.40;99.90;;;19.99;71.09;98152.63;5068406;28;20128;-68
2021/06/08 09:33:54;;;;;;;13.10;10.90;;;21.70;99.90;;;20.58;68.74;98154.53;5066206;28;20058;-69
2021/06/08 09:36:29;;;;;;;13.23;10.75;;;22.00;99.90;;;20.76;67.72;98151.50;5065239;28;20525;-68
2021/06/08 09:39:01;;;;;;;12.48;9.07;;;22.40;99.90;;;21.27;67.10;98148.47;5068065;28;20098;-69
2021/06/08 09:41:31;;;;;;;13.80;9.77;;;22.70;99.90;;;21.07;66.80;98153.50;5069239;28;20112;-69
2021/06/08 09:44:05;;;;;;;10.77;9.45;;;22.90;99.90;;;21.20;66.89;98149.91;5066816;28;20074;-69
2021/06/08 09:46:53;;;;;;;13.15;9.73;;;23.30;99.90;;;21.38;65.80;98155.56;5062128;28;20045;-68
2021/06/08 09:49:41;;;;;;;12.98;10.35;;;23.40;99.90;;;21.12;65.88;98153.13;5021245;28;20045;-68
2021/06/08 09:52:09;;;;;;;12.05;9.60;;;23.40;99.90;;;21.35;65.81;98158.41;5032592;28;20073;-69
2021/06/08 09:54:51;;;;;;;11.30;9.60;;;23.50;99.90;;;21.78;64.25;98150.66;5032305;28;20068;-69
2021/06/08 09:57:28;;;;;;;10.13;8.95;;;23.90;99.90;;;21.92;64.15;98150.41;5027506;28;20064;-69
2021/06/08 10:00:03;;;;;;;13.35;10.65;;;24.20;99.90;;;21.49;64.53;98156.44;5056233;28;20045;-69
2021/06/08 10:02:48;;;;;;;10.40;8.27;;;23.80;99.90;;;21.87;64.61;98157.00;5058297;28;20416;-68
2021/06/08 10:05:27;;;;;;;11.13;9.25;;;24.00;99.90;;;21.61;64.41;98151.97;5030513;28;20041;-69
2021/06/08 10:08:00;;;;;;;13.23;10.68;;;23.70;99.90;;;21.34;65.39;98159.38;5044749;28;20065;-69
2021/06/08 10:10:48;;;;;;;15.10;10.02;;;23.60;99.90;;;21.27;65.20;98151.94;5037097;28;20475;-69
2021/06/08 10:13:20;;;;;;;9.80;8.00;;;23.60;99.90;;;22.45;62.92;98154.16;5029380;28;20450;-68
2021/06/08 10:16:07;;;;;;;14.73;10.40;;;24.10;99.90;;;21.89;63.03;98149.78;5034506;28;20045;-68
2021/06/08 10:18:49;;;;;;;14.98;9.70;;;24.20;99.90;;;21.63;64.09;98155.34;4997764;28;20401;-69
2021/06/08 10:21:32;;;;;;;13.77;10.60;;;24.20;99.90;;;21.82;64.04;98148.59;5034268;28;20045;-68
2021/06/08 10:24:20;;;;;;;9.82;8.45;;;24.00;99.90;;;22.15;63.03;98139.78;5031094;28;20033;-70